sensor_id;sensor_type;location;lat;lon;timestamp;P1;durP1;ratioP1;P2;durP2;ratioP2
60076;SDS011;45950;45.208;20.374;2023-04-03T00:01:27;4.68;;;3.85;;
60076;SDS011;45950;45.208;20.374;2023-04-03T00:03:53;6.75;;;5.25;;
60076;SDS011;45950;45.208;20.374;2023-04-03T00:06:20;5.47;;;4.35;;
60076;SDS011;45950;45.208;20.374;2023-04-03T00:08:49;6.53;;;4.20;;
60076;SDS011;45950;45.208;20.374;2023-04-03T00:11:16;7.40;;;5.93;;
60076;SDS011;45950;45.208;20.374;2023-04-03T00:13:43;6.43;;;5.20;;
60076;SDS011;45950;45.208;20.374;2023-04-03T00:16:11;6.38;;;5.53;;
60076;SDS011;45950;45.208;20.374;2023-04-03T00:18:38;6.65;;;5.38;;
60076;SDS011;45950;45.208;20.374;2023-04-03T00:21:05;7.82;;;5.78;;
60076;SDS011;45950;45.208;20.374;2023-04-03T00:23:31;7.78;;;6.40;;
60076;SDS011;45950;45.208;20.374;2023-04-03T00:25:58;7.00;;;5.53;;
60076;SDS011;45950;45.208;20.374;2023-04-03T00:28:24;6.28;;;5.32;;
60076;SDS011;45950;45.208;20.374;2023-04-03T00:30:51;8.02;;;6.82;;
60076;SDS011;45950;45.208;20.374;2023-04-03T00:33:20;6.45;;;4.93;;
60076;SDS011;45950;45.208;20.374;2023-04-03T00:35:46;11.82;;;7.78;;
60076;SDS011;45950;45.208;20.374;2023-04-03T00:38:13;7.75;;;6.90;;
60076;SDS011;45950;45.208;20.374;2023-04-03T00:40:41;9.57;;;7.65;;
60076;SDS011;45950;45.208;20.374;2023-04-03T00:43:10;7.18;;;6.20;;
60076;SDS011;45950;45.208;20.374;2023-04-03T00:45:38;9.82;;;7.18;;
60076;SDS011;45950;45.208;20.374;2023-04-03T00:48:05;6.90;;;6.07;;
60076;SDS011;45950;45.208;20.374;2023-04-03T00:50:34;8.15;;;6.07;;
60076;SDS011;45950;45.208;20.374;2023-04-03T00:53:02;7.47;;;6.57;;
60076;SDS011;45950;45.208;20.374;2023-04-03T00:55:29;8.10;;;6.78;;
60076;SDS011;45950;45.208;20.374;2023-04-03T00:57:56;7.68;;;5.82;;
60076;SDS011;45950;45.208;20.374;2023-04-03T01:00:23;9.68;;;6.38;;
60076;SDS011;45950;45.208;20.374;2023-04-03T01:02:51;6.95;;;6.03;;
60076;SDS011;45950;45.208;20.374;2023-04-03T01:05:18;7.70;;;6.68;;
60076;SDS011;45950;45.208;20.374;2023-04-03T01:07:47;8.48;;;7.55;;
60076;SDS011;45950;45.208;20.374;2023-04-03T01:10:14;7.53;;;6.18;;
60076;SDS011;45950;45.208;20.374;2023-04-03T01:12:42;8.93;;;6.93;;
60076;SDS011;45950;45.208;20.374;2023-04-03T01:15:10;11.05;;;8.65;;
60076;SDS011;45950;45.208;20.374;2023-04-03T01:17:37;11.82;;;8.40;;
60076;SDS011;45950;45.208;20.374;2023-04-03T01:20:14;12.88;;;8.77;;
60076;SDS011;45950;45.208;20.374;2023-04-03T01:22:44;12.00;;;8.20;;
60076;SDS011;45950;45.208;20.374;2023-04-03T01:25:18;12.18;;;8.48;;
60076;SDS011;45950;45.208;20.374;2023-04-03T01:27:44;11.50;;;8.40;;
60076;SDS011;45950;45.208;20.374;2023-04-03T01:30:11;12.82;;;9.50;;
60076;SDS011;45950;45.208;20.374;2023-04-03T01:32:40;14.15;;;8.75;;
60076;SDS011;45950;45.208;20.374;2023-04-03T01:35:07;12.20;;;9.10;;
60076;SDS011;45950;45.208;20.374;2023-04-03T01:37:34;12.00;;;8.25;;
60076;SDS011;45950;45.208;20.374;2023-04-03T01:40:00;11.02;;;7.40;;
60076;SDS011;45950;45.208;20.374;2023-04-03T01:42:27;12.52;;;8.68;;
60076;SDS011;45950;45.208;20.374;2023-04-03T01:44:54;13.13;;;9.30;;
60076;SDS011;45950;45.208;20.374;2023-04-03T01:47:21;12.15;;;7.88;;
60076;SDS011;45950;45.208;20.374;2023-04-03T01:49:48;13.35;;;9.88;;
60076;SDS011;45950;45.208;20.374;2023-04-03T01:52:15;15.30;;;10.60;;
60076;SDS011;45950;45.208;20.374;2023-04-03T01:54:41;18.40;;;13.18;;
60076;SDS011;45950;45.208;20.374;2023-04-03T01:57:08;30.20;;;17.23;;
60076;SDS011;45950;45.208;20.374;2023-04-03T01:59:35;14.05;;;11.00;;
60076;SDS011;45950;45.208;20.374;2023-04-03T02:02:01;14.88;;;11.07;;
60076;SDS011;45950;45.208;20.374;2023-04-03T02:04:28;14.77;;;10.57;;
60076;SDS011;45950;45.208;20.374;2023-04-03T02:06:56;12.82;;;9.55;;
60076;SDS011;45950;45.208;20.374;2023-04-03T02:09:22;23.50;;;14.32;;
60076;SDS011;45950;45.208;20.374;2023-04-03T02:11:49;13.25;;;10.77;;
60076;SDS011;45950;45.208;20.374;2023-04-03T02:14:15;14.05;;;10.40;;
60076;SDS011;45950;45.208;20.374;2023-04-03T02:16:42;13.85;;;10.90;;
60076;SDS011;45950;45.208;20.374;2023-04-03T02:19:08;13.43;;;9.60;;
60076;SDS011;45950;45.208;20.374;2023-04-03T02:21:35;13.20;;;10.00;;
60076;SDS011;45950;45.208;20.374;2023-04-03T02:26:56;13.57;;;8.95;;
60076;SDS011;45950;45.208;20.374;2023-04-03T02:29:22;16.90;;;9.40;;
60076;SDS011;45950;45.208;20.374;2023-04-03T02:31:49;14.20;;;9.63;;
60076;SDS011;45950;45.208;20.374;2023-04-03T02:34:16;12.93;;;8.73;;
60076;SDS011;45950;45.208;20.374;2023-04-03T02:36:42;12.73;;;8.57;;
60076;SDS011;45950;45.208;20.374;2023-04-03T02:39:10;11.93;;;7.85;;
60076;SDS011;45950;45.208;20.374;2023-04-03T02:41:36;18.25;;;10.13;;
60076;SDS011;45950;45.208;20.374;2023-04-03T02:44:05;14.88;;;8.82;;
60076;SDS011;45950;45.208;20.374;2023-04-03T02:46:32;12.52;;;8.93;;
60076;SDS011;45950;45.208;20.374;2023-04-03T02:48:58;14.25;;;9.65;;
60076;SDS011;45950;45.208;20.374;2023-04-03T02:51:32;14.88;;;8.98;;
60076;SDS011;45950;45.208;20.374;2023-04-03T02:53:58;14.95;;;9.90;;
60076;SDS011;45950;45.208;20.374;2023-04-03T02:56:25;13.65;;;9.13;;
60076;SDS011;45950;45.208;20.374;2023-04-03T02:58:52;13.98;;;9.15;;
60076;SDS011;45950;45.208;20.374;2023-04-03T03:01:20;14.48;;;8.70;;
60076;SDS011;45950;45.208;20.374;2023-04-03T03:03:46;16.73;;;10.65;;
60076;SDS011;45950;45.208;20.374;2023-04-03T03:06:14;12.63;;;7.88;;
60076;SDS011;45950;45.208;20.374;2023-04-03T03:08:41;14.02;;;8.43;;
60076;SDS011;45950;45.208;20.374;2023-04-03T03:11:08;11.85;;;7.13;;
60076;SDS011;45950;45.208;20.374;2023-04-03T03:13:35;10.60;;;6.32;;
60076;SDS011;45950;45.208;20.374;2023-04-03T03:16:01;9.52;;;6.03;;
60076;SDS011;45950;45.208;20.374;2023-04-03T03:18:29;11.85;;;6.32;;
60076;SDS011;45950;45.208;20.374;2023-04-03T03:21:00;8.98;;;5.57;;
60076;SDS011;45950;45.208;20.374;2023-04-03T03:23:27;8.75;;;5.65;;
60076;SDS011;45950;45.208;20.374;2023-04-03T03:25:54;9.32;;;5.68;;
60076;SDS011;45950;45.208;20.374;2023-04-03T03:28:21;8.88;;;5.57;;
60076;SDS011;45950;45.208;20.374;2023-04-03T03:30:48;10.52;;;7.03;;
60076;SDS011;45950;45.208;20.374;2023-04-03T03:33:14;12.45;;;6.53;;
60076;SDS011;45950;45.208;20.374;2023-04-03T03:35:45;10.88;;;6.68;;
60076;SDS011;45950;45.208;20.374;2023-04-03T03:38:12;10.38;;;6.10;;
60076;SDS011;45950;45.208;20.374;2023-04-03T03:40:38;9.48;;;6.75;;
60076;SDS011;45950;45.208;20.374;2023-04-03T03:43:05;10.70;;;6.03;;
60076;SDS011;45950;45.208;20.374;2023-04-03T03:45:31;8.55;;;5.72;;
60076;SDS011;45950;45.208;20.374;2023-04-03T03:47:57;8.75;;;5.38;;
60076;SDS011;45950;45.208;20.374;2023-04-03T03:50:24;9.25;;;6.20;;
60076;SDS011;45950;45.208;20.374;2023-04-03T03:52:52;7.95;;;5.25;;
60076;SDS011;45950;45.208;20.374;2023-04-03T03:55:18;8.15;;;5.10;;
60076;SDS011;45950;45.208;20.374;2023-04-03T03:57:45;7.70;;;5.05;;
60076;SDS011;45950;45.208;20.374;2023-04-03T04:00:12;8.25;;;5.43;;
60076;SDS011;45950;45.208;20.374;2023-04-03T04:02:38;7.65;;;4.13;;
60076;SDS011;45950;45.208;20.374;2023-04-03T04:05:05;9.20;;;5.63;;
60076;SDS011;45950;45.208;20.374;2023-04-03T04:07:31;8.63;;;4.65;;
60076;SDS011;45950;45.208;20.374;2023-04-03T04:09:59;9.05;;;5.55;;
60076;SDS011;45950;45.208;20.374;2023-04-03T04:12:26;8.32;;;4.70;;
60076;SDS011;45950;45.208;20.374;2023-04-03T04:14:52;11.48;;;5.88;;
60076;SDS011;45950;45.208;20.374;2023-04-03T04:17:19;7.68;;;5.22;;
60076;SDS011;45950;45.208;20.374;2023-04-03T04:19:45;8.82;;;5.57;;
60076;SDS011;45950;45.208;20.374;2023-04-03T04:22:12;7.78;;;5.18;;
60076;SDS011;45950;45.208;20.374;2023-04-03T04:24:38;8.90;;;5.95;;
60076;SDS011;45950;45.208;20.374;2023-04-03T04:27:06;6.90;;;4.57;;
60076;SDS011;45950;45.208;20.374;2023-04-03T04:29:32;8.02;;;4.82;;
60076;SDS011;45950;45.208;20.374;2023-04-03T04:32:01;7.22;;;4.95;;
60076;SDS011;45950;45.208;20.374;2023-04-03T04:34:28;6.60;;;4.80;;
60076;SDS011;45950;45.208;20.374;2023-04-03T04:36:54;7.90;;;5.40;;
60076;SDS011;45950;45.208;20.374;2023-04-03T04:39:21;6.93;;;4.28;;
60076;SDS011;45950;45.208;20.374;2023-04-03T04:41:47;7.28;;;4.70;;
60076;SDS011;45950;45.208;20.374;2023-04-03T04:44:15;7.15;;;5.30;;
60076;SDS011;45950;45.208;20.374;2023-04-03T04:46:41;8.20;;;5.70;;
60076;SDS011;45950;45.208;20.374;2023-04-03T04:49:08;7.85;;;5.00;;
60076;SDS011;45950;45.208;20.374;2023-04-03T04:51:34;8.05;;;5.78;;
60076;SDS011;45950;45.208;20.374;2023-04-03T04:54:01;10.40;;;5.03;;
60076;SDS011;45950;45.208;20.374;2023-04-03T04:56:27;7.32;;;5.53;;
60076;SDS011;45950;45.208;20.374;2023-04-03T04:58:54;6.15;;;4.38;;
60076;SDS011;45950;45.208;20.374;2023-04-03T05:01:22;8.35;;;6.13;;
60076;SDS011;45950;45.208;20.374;2023-04-03T05:03:49;8.40;;;5.20;;
60076;SDS011;45950;45.208;20.374;2023-04-03T05:09:18;7.28;;;5.10;;
60076;SDS011;45950;45.208;20.374;2023-04-03T05:11:45;6.78;;;5.38;;
60076;SDS011;45950;45.208;20.374;2023-04-03T05:14:11;8.27;;;5.03;;
60076;SDS011;45950;45.208;20.374;2023-04-03T05:16:40;7.47;;;5.53;;
60076;SDS011;45950;45.208;20.374;2023-04-03T05:19:07;12.45;;;5.15;;
60076;SDS011;45950;45.208;20.374;2023-04-03T05:21:33;6.85;;;4.65;;
60076;SDS011;45950;45.208;20.374;2023-04-03T05:24:00;5.88;;;4.53;;
60076;SDS011;45950;45.208;20.374;2023-04-03T05:26:28;6.55;;;3.92;;
60076;SDS011;45950;45.208;20.374;2023-04-03T05:28:54;8.30;;;4.70;;
60076;SDS011;45950;45.208;20.374;2023-04-03T05:31:21;5.45;;;4.00;;
60076;SDS011;45950;45.208;20.374;2023-04-03T05:33:49;6.03;;;4.55;;
60076;SDS011;45950;45.208;20.374;2023-04-03T05:36:15;9.18;;;4.50;;
60076;SDS011;45950;45.208;20.374;2023-04-03T05:38:42;7.53;;;4.85;;
60076;SDS011;45950;45.208;20.374;2023-04-03T05:41:10;6.70;;;4.95;;
60076;SDS011;45950;45.208;20.374;2023-04-03T05:43:36;8.40;;;5.20;;
60076;SDS011;45950;45.208;20.374;2023-04-03T05:46:04;5.38;;;4.03;;
60076;SDS011;45950;45.208;20.374;2023-04-03T05:48:32;6.63;;;4.75;;
60076;SDS011;45950;45.208;20.374;2023-04-03T05:51:00;8.10;;;4.93;;
60076;SDS011;45950;45.208;20.374;2023-04-03T05:53:28;6.82;;;4.25;;
60076;SDS011;45950;45.208;20.374;2023-04-03T05:55:55;6.18;;;4.07;;
60076;SDS011;45950;45.208;20.374;2023-04-03T05:58:21;5.20;;;3.92;;
60076;SDS011;45950;45.208;20.374;2023-04-03T06:00:48;7.28;;;4.32;;
60076;SDS011;45950;45.208;20.374;2023-04-03T06:03:14;6.35;;;3.55;;
60076;SDS011;45950;45.208;20.374;2023-04-03T06:05:43;5.20;;;3.20;;
60076;SDS011;45950;45.208;20.374;2023-04-03T06:08:12;5.18;;;3.67;;
60076;SDS011;45950;45.208;20.374;2023-04-03T06:10:39;5.05;;;3.25;;
60076;SDS011;45950;45.208;20.374;2023-04-03T06:13:14;5.88;;;3.40;;
60076;SDS011;45950;45.208;20.374;2023-04-03T06:15:41;4.60;;;3.63;;
60076;SDS011;45950;45.208;20.374;2023-04-03T06:18:07;5.65;;;3.70;;
60076;SDS011;45950;45.208;20.374;2023-04-03T06:20:34;5.93;;;3.97;;
60076;SDS011;45950;45.208;20.374;2023-04-03T06:23:01;5.65;;;4.03;;
60076;SDS011;45950;45.208;20.374;2023-04-03T06:25:29;5.05;;;3.85;;
60076;SDS011;45950;45.208;20.374;2023-04-03T06:27:56;4.93;;;3.47;;
60076;SDS011;45950;45.208;20.374;2023-04-03T06:30:23;7.13;;;4.18;;
60076;SDS011;45950;45.208;20.374;2023-04-03T06:32:49;5.45;;;3.72;;
60076;SDS011;45950;45.208;20.374;2023-04-03T06:35:17;5.57;;;3.70;;
60076;SDS011;45950;45.208;20.374;2023-04-03T06:37:43;6.82;;;4.03;;
60076;SDS011;45950;45.208;20.374;2023-04-03T06:40:12;4.35;;;3.47;;
60076;SDS011;45950;45.208;20.374;2023-04-03T06:42:43;4.47;;;3.15;;
60076;SDS011;45950;45.208;20.374;2023-04-03T06:45:09;4.90;;;3.22;;
60076;SDS011;45950;45.208;20.374;2023-04-03T06:47:36;4.30;;;2.95;;
60076;SDS011;45950;45.208;20.374;2023-04-03T06:50:03;3.97;;;3.15;;
60076;SDS011;45950;45.208;20.374;2023-04-03T06:52:31;4.82;;;3.40;;
60076;SDS011;45950;45.208;20.374;2023-04-03T06:54:58;4.30;;;2.95;;
60076;SDS011;45950;45.208;20.374;2023-04-03T06:57:25;3.83;;;2.95;;
60076;SDS011;45950;45.208;20.374;2023-04-03T06:59:53;7.30;;;3.42;;
60076;SDS011;45950;45.208;20.374;2023-04-03T07:02:19;5.70;;;3.83;;
60076;SDS011;45950;45.208;20.374;2023-04-03T07:04:46;6.38;;;3.00;;
60076;SDS011;45950;45.208;20.374;2023-04-03T07:07:13;4.80;;;2.95;;
60076;SDS011;45950;45.208;20.374;2023-04-03T07:09:40;5.13;;;3.40;;
60076;SDS011;45950;45.208;20.374;2023-04-03T07:15:11;4.68;;;3.17;;
60076;SDS011;45950;45.208;20.374;2023-04-03T07:17:39;3.72;;;2.70;;
60076;SDS011;45950;45.208;20.374;2023-04-03T07:20:06;4.90;;;2.95;;
60076;SDS011;45950;45.208;20.374;2023-04-03T07:22:33;10.95;;;2.90;;
60076;SDS011;45950;45.208;20.374;2023-04-03T07:24:59;3.47;;;2.55;;
60076;SDS011;45950;45.208;20.374;2023-04-03T07:27:26;4.50;;;2.95;;
60076;SDS011;45950;45.208;20.374;2023-04-03T07:29:52;4.95;;;2.90;;
60076;SDS011;45950;45.208;20.374;2023-04-03T07:32:23;6.18;;;3.03;;
60076;SDS011;45950;45.208;20.374;2023-04-03T07:34:50;4.05;;;2.83;;
60076;SDS011;45950;45.208;20.374;2023-04-03T07:37:16;5.50;;;3.92;;
60076;SDS011;45950;45.208;20.374;2023-04-03T07:39:44;6.03;;;3.60;;
60076;SDS011;45950;45.208;20.374;2023-04-03T07:42:11;4.82;;;3.25;;
60076;SDS011;45950;45.208;20.374;2023-04-03T07:44:37;5.78;;;3.67;;
60076;SDS011;45950;45.208;20.374;2023-04-03T07:47:04;7.05;;;4.40;;
60076;SDS011;45950;45.208;20.374;2023-04-03T07:49:32;7.18;;;4.70;;
60076;SDS011;45950;45.208;20.374;2023-04-03T07:51:59;7.57;;;4.18;;
60076;SDS011;45950;45.208;20.374;2023-04-03T07:54:26;9.15;;;4.00;;
60076;SDS011;45950;45.208;20.374;2023-04-03T07:56:52;5.95;;;4.35;;
60076;SDS011;45950;45.208;20.374;2023-04-03T07:59:19;5.88;;;3.70;;
60076;SDS011;45950;45.208;20.374;2023-04-03T08:01:45;4.45;;;3.25;;
60076;SDS011;45950;45.208;20.374;2023-04-03T08:04:12;5.40;;;4.00;;
60076;SDS011;45950;45.208;20.374;2023-04-03T08:06:40;4.80;;;3.55;;
60076;SDS011;45950;45.208;20.374;2023-04-03T08:09:24;5.35;;;3.92;;
60076;SDS011;45950;45.208;20.374;2023-04-03T08:11:51;5.45;;;3.33;;
60076;SDS011;45950;45.208;20.374;2023-04-03T08:14:18;6.28;;;3.80;;
60076;SDS011;45950;45.208;20.374;2023-04-03T08:16:45;5.60;;;3.55;;
60076;SDS011;45950;45.208;20.374;2023-04-03T08:19:12;5.97;;;3.55;;
60076;SDS011;45950;45.208;20.374;2023-04-03T08:21:41;5.30;;;3.35;;
60076;SDS011;45950;45.208;20.374;2023-04-03T08:24:08;4.38;;;3.08;;
60076;SDS011;45950;45.208;20.374;2023-04-03T08:26:35;5.07;;;3.20;;
60076;SDS011;45950;45.208;20.374;2023-04-03T08:29:01;4.07;;;2.78;;
60076;SDS011;45950;45.208;20.374;2023-04-03T08:31:28;6.32;;;3.35;;
60076;SDS011;45950;45.208;20.374;2023-04-03T08:33:56;4.38;;;2.95;;
60076;SDS011;45950;45.208;20.374;2023-04-03T08:39:12;5.63;;;3.10;;
60076;SDS011;45950;45.208;20.374;2023-04-03T08:41:39;5.18;;;2.78;;
60076;SDS011;45950;45.208;20.374;2023-04-03T08:44:11;4.05;;;2.75;;
60076;SDS011;45950;45.208;20.374;2023-04-03T08:46:42;4.20;;;2.58;;
60076;SDS011;45950;45.208;20.374;2023-04-03T08:49:14;3.97;;;3.03;;
60076;SDS011;45950;45.208;20.374;2023-04-03T08:51:43;4.80;;;2.90;;
60076;SDS011;45950;45.208;20.374;2023-04-03T08:54:15;4.65;;;2.75;;
60076;SDS011;45950;45.208;20.374;2023-04-03T08:56:46;4.23;;;2.70;;
60076;SDS011;45950;45.208;20.374;2023-04-03T08:59:14;4.65;;;3.28;;
60076;SDS011;45950;45.208;20.374;2023-04-03T09:01:45;5.28;;;2.90;;
60076;SDS011;45950;45.208;20.374;2023-04-03T09:04:12;6.38;;;3.20;;
60076;SDS011;45950;45.208;20.374;2023-04-03T09:06:39;6.97;;;3.08;;
60076;SDS011;45950;45.208;20.374;2023-04-03T09:09:09;6.50;;;3.40;;
60076;SDS011;45950;45.208;20.374;2023-04-03T09:11:43;5.35;;;3.47;;
60076;SDS011;45950;45.208;20.374;2023-04-03T09:14:13;6.13;;;3.42;;
60076;SDS011;45950;45.208;20.374;2023-04-03T09:16:43;6.88;;;4.10;;
60076;SDS011;45950;45.208;20.374;2023-04-03T09:19:15;6.22;;;3.53;;
60076;SDS011;45950;45.208;20.374;2023-04-03T09:21:44;5.50;;;3.55;;
60076;SDS011;45950;45.208;20.374;2023-04-03T09:24:12;6.40;;;3.28;;
60076;SDS011;45950;45.208;20.374;2023-04-03T09:26:41;5.25;;;3.40;;
60076;SDS011;45950;45.208;20.374;2023-04-03T09:29:10;6.60;;;3.42;;
60076;SDS011;45950;45.208;20.374;2023-04-03T09:31:41;4.07;;;3.20;;
60076;SDS011;45950;45.208;20.374;2023-04-03T09:34:10;5.93;;;3.60;;
60076;SDS011;45950;45.208;20.374;2023-04-03T09:36:43;5.63;;;3.50;;
60076;SDS011;45950;45.208;20.374;2023-04-03T09:39:12;4.88;;;2.95;;
60076;SDS011;45950;45.208;20.374;2023-04-03T09:41:39;5.63;;;3.63;;
60076;SDS011;45950;45.208;20.374;2023-04-03T09:44:19;6.30;;;3.85;;
60076;SDS011;45950;45.208;20.374;2023-04-03T09:46:46;6.65;;;4.32;;
60076;SDS011;45950;45.208;20.374;2023-04-03T09:49:12;5.65;;;3.40;;
60076;SDS011;45950;45.208;20.374;2023-04-03T09:51:39;5.57;;;2.78;;
60076;SDS011;45950;45.208;20.374;2023-04-03T09:56:50;4.57;;;2.95;;
60076;SDS011;45950;45.208;20.374;2023-04-03T09:59:18;5.13;;;3.00;;
60076;SDS011;45950;45.208;20.374;2023-04-03T10:01:56;4.47;;;2.97;;
60076;SDS011;45950;45.208;20.374;2023-04-03T10:04:23;4.10;;;2.60;;
60076;SDS011;45950;45.208;20.374;2023-04-03T10:06:51;4.57;;;2.90;;
60076;SDS011;45950;45.208;20.374;2023-04-03T10:09:18;3.30;;;2.63;;
60076;SDS011;45950;45.208;20.374;2023-04-03T10:14:32;4.60;;;3.00;;
60076;SDS011;45950;45.208;20.374;2023-04-03T10:17:01;5.55;;;3.45;;
60076;SDS011;45950;45.208;20.374;2023-04-03T10:19:32;4.70;;;3.08;;
60076;SDS011;45950;45.208;20.374;2023-04-03T10:21:59;5.60;;;3.63;;
60076;SDS011;45950;45.208;20.374;2023-04-03T10:24:30;5.43;;;3.30;;
60076;SDS011;45950;45.208;20.374;2023-04-03T10:27:02;6.53;;;3.53;;
60076;SDS011;45950;45.208;20.374;2023-04-03T10:29:36;5.47;;;3.95;;
60076;SDS011;45950;45.208;20.374;2023-04-03T10:32:10;3.95;;;2.40;;
60076;SDS011;45950;45.208;20.374;2023-04-03T10:34:42;3.83;;;2.70;;
60076;SDS011;45950;45.208;20.374;2023-04-03T10:37:11;4.32;;;2.75;;
60076;SDS011;45950;45.208;20.374;2023-04-03T10:39:42;4.43;;;2.60;;
60076;SDS011;45950;45.208;20.374;2023-04-03T10:42:13;4.07;;;2.38;;
60076;SDS011;45950;45.208;20.374;2023-04-03T10:44:46;3.40;;;2.60;;
60076;SDS011;45950;45.208;20.374;2023-04-03T10:47:16;4.65;;;2.78;;
60076;SDS011;45950;45.208;20.374;2023-04-03T10:49:47;3.67;;;2.60;;
60076;SDS011;45950;45.208;20.374;2023-04-03T10:52:17;3.90;;;2.70;;
60076;SDS011;45950;45.208;20.374;2023-04-03T10:54:46;3.92;;;2.30;;
60076;SDS011;45950;45.208;20.374;2023-04-03T10:57:15;4.75;;;2.63;;
60076;SDS011;45950;45.208;20.374;2023-04-03T10:59:45;7.03;;;3.05;;
60076;SDS011;45950;45.208;20.374;2023-04-03T11:02:14;3.17;;;2.40;;
60076;SDS011;45950;45.208;20.374;2023-04-03T11:04:44;4.18;;;3.00;;
60076;SDS011;45950;45.208;20.374;2023-04-03T11:07:12;5.00;;;3.38;;
60076;SDS011;45950;45.208;20.374;2023-04-03T11:09:41;6.20;;;3.33;;
60076;SDS011;45950;45.208;20.374;2023-04-03T11:12:10;3.33;;;2.22;;
60076;SDS011;45950;45.208;20.374;2023-04-03T11:14:37;5.45;;;3.20;;
60076;SDS011;45950;45.208;20.374;2023-04-03T11:17:08;3.97;;;2.60;;
60076;SDS011;45950;45.208;20.374;2023-04-03T11:19:39;5.00;;;2.95;;
60076;SDS011;45950;45.208;20.374;2023-04-03T11:22:10;3.88;;;2.65;;
60076;SDS011;45950;45.208;20.374;2023-04-03T11:24:38;4.45;;;2.40;;
60076;SDS011;45950;45.208;20.374;2023-04-03T11:27:08;3.33;;;2.38;;
60076;SDS011;45950;45.208;20.374;2023-04-03T11:29:38;6.28;;;3.75;;
60076;SDS011;45950;45.208;20.374;2023-04-03T11:32:15;4.82;;;2.70;;
60076;SDS011;45950;45.208;20.374;2023-04-03T11:34:47;4.97;;;2.20;;
60076;SDS011;45950;45.208;20.374;2023-04-03T11:37:17;3.42;;;2.10;;
60076;SDS011;45950;45.208;20.374;2023-04-03T11:39:48;7.45;;;3.17;;
60076;SDS011;45950;45.208;20.374;2023-04-03T11:48:01;4.38;;;2.85;;
60076;SDS011;45950;45.208;20.374;2023-04-03T11:50:42;5.50;;;3.30;;
60076;SDS011;45950;45.208;20.374;2023-04-03T11:53:31;6.15;;;2.50;;
60076;SDS011;45950;45.208;20.374;2023-04-03T11:56:00;5.43;;;2.80;;
60076;SDS011;45950;45.208;20.374;2023-04-03T11:58:46;4.60;;;2.55;;
60076;SDS011;45950;45.208;20.374;2023-04-03T12:01:43;3.88;;;2.67;;
60076;SDS011;45950;45.208;20.374;2023-04-03T12:04:11;6.80;;;2.95;;
60076;SDS011;45950;45.208;20.374;2023-04-03T12:09:22;3.40;;;2.38;;
60076;SDS011;45950;45.208;20.374;2023-04-03T12:11:49;3.65;;;2.53;;
60076;SDS011;45950;45.208;20.374;2023-04-03T12:14:17;3.58;;;2.38;;
60076;SDS011;45950;45.208;20.374;2023-04-03T12:16:44;3.85;;;2.60;;
60076;SDS011;45950;45.208;20.374;2023-04-03T12:19:30;3.63;;;2.38;;
60076;SDS011;45950;45.208;20.374;2023-04-03T12:22:05;4.75;;;2.47;;
60076;SDS011;45950;45.208;20.374;2023-04-03T12:24:32;3.55;;;2.28;;
60076;SDS011;45950;45.208;20.374;2023-04-03T12:27:03;8.93;;;4.90;;
60076;SDS011;45950;45.208;20.374;2023-04-03T12:29:33;4.82;;;3.33;;
60076;SDS011;45950;45.208;20.374;2023-04-03T12:32:05;3.33;;;2.00;;
60076;SDS011;45950;45.208;20.374;2023-04-03T12:34:46;3.15;;;2.63;;
60076;SDS011;45950;45.208;20.374;2023-04-03T12:37:19;4.00;;;2.50;;
60076;SDS011;45950;45.208;20.374;2023-04-03T12:39:50;3.97;;;2.67;;
60076;SDS011;45950;45.208;20.374;2023-04-03T12:44:59;2.90;;;2.10;;
60076;SDS011;45950;45.208;20.374;2023-04-03T12:47:29;2.70;;;1.88;;
60076;SDS011;45950;45.208;20.374;2023-04-03T12:49:59;2.92;;;2.17;;
60076;SDS011;45950;45.208;20.374;2023-04-03T12:52:33;3.83;;;2.28;;
60076;SDS011;45950;45.208;20.374;2023-04-03T12:55:02;3.75;;;2.08;;
60076;SDS011;45950;45.208;20.374;2023-04-03T12:57:30;4.47;;;2.53;;
60076;SDS011;45950;45.208;20.374;2023-04-03T12:59:57;4.00;;;2.45;;
60076;SDS011;45950;45.208;20.374;2023-04-03T13:02:25;4.32;;;2.15;;
60076;SDS011;45950;45.208;20.374;2023-04-03T13:04:53;2.63;;;1.92;;
60076;SDS011;45950;45.208;20.374;2023-04-03T13:07:22;2.92;;;2.10;;
60076;SDS011;45950;45.208;20.374;2023-04-03T13:09:57;4.93;;;2.97;;
60076;SDS011;45950;45.208;20.374;2023-04-03T13:12:24;4.13;;;2.00;;
60076;SDS011;45950;45.208;20.374;2023-04-03T13:14:52;2.75;;;1.80;;
60076;SDS011;45950;45.208;20.374;2023-04-03T13:17:19;3.88;;;2.35;;
60076;SDS011;45950;45.208;20.374;2023-04-03T13:19:46;2.53;;;2.08;;
60076;SDS011;45950;45.208;20.374;2023-04-03T13:22:18;2.45;;;1.70;;
60076;SDS011;45950;45.208;20.374;2023-04-03T13:24:49;3.78;;;2.60;;
60076;SDS011;45950;45.208;20.374;2023-04-03T13:27:17;3.55;;;2.45;;
60076;SDS011;45950;45.208;20.374;2023-04-03T13:29:44;3.92;;;2.40;;
60076;SDS011;45950;45.208;20.374;2023-04-03T13:32:16;3.63;;;2.08;;
60076;SDS011;45950;45.208;20.374;2023-04-03T13:34:44;6.65;;;3.17;;
60076;SDS011;45950;45.208;20.374;2023-04-03T13:37:19;3.40;;;2.22;;
60076;SDS011;45950;45.208;20.374;2023-04-03T13:39:45;4.68;;;2.05;;
60076;SDS011;45950;45.208;20.374;2023-04-03T13:42:24;3.00;;;1.80;;
60076;SDS011;45950;45.208;20.374;2023-04-03T13:45:06;5.40;;;2.78;;
60076;SDS011;45950;45.208;20.374;2023-04-03T13:47:37;3.97;;;2.33;;
60076;SDS011;45950;45.208;20.374;2023-04-03T13:50:13;4.68;;;2.65;;
60076;SDS011;45950;45.208;20.374;2023-04-03T13:52:40;4.57;;;2.58;;
60076;SDS011;45950;45.208;20.374;2023-04-03T13:55:15;3.55;;;2.30;;
60076;SDS011;45950;45.208;20.374;2023-04-03T13:57:50;3.47;;;2.28;;
60076;SDS011;45950;45.208;20.374;2023-04-03T14:03:11;3.28;;;2.20;;
60076;SDS011;45950;45.208;20.374;2023-04-03T14:05:48;3.47;;;1.88;;
60076;SDS011;45950;45.208;20.374;2023-04-03T14:08:14;2.95;;;2.10;;
60076;SDS011;45950;45.208;20.374;2023-04-03T14:10:41;2.50;;;2.03;;
60076;SDS011;45950;45.208;20.374;2023-04-03T14:13:11;4.32;;;2.45;;
60076;SDS011;45950;45.208;20.374;2023-04-03T14:15:38;3.40;;;2.40;;
60076;SDS011;45950;45.208;20.374;2023-04-03T14:18:04;3.95;;;2.50;;
60076;SDS011;45950;45.208;20.374;2023-04-03T14:20:48;3.47;;;2.38;;
60076;SDS011;45950;45.208;20.374;2023-04-03T14:23:14;5.10;;;2.85;;
60076;SDS011;45950;45.208;20.374;2023-04-03T14:25:41;4.75;;;2.35;;
60076;SDS011;45950;45.208;20.374;2023-04-03T14:28:21;2.10;;;1.60;;
60076;SDS011;45950;45.208;20.374;2023-04-03T14:30:48;3.22;;;1.73;;
60076;SDS011;45950;45.208;20.374;2023-04-03T14:33:17;4.15;;;2.40;;
60076;SDS011;45950;45.208;20.374;2023-04-03T14:38:33;7.10;;;4.47;;
60076;SDS011;45950;45.208;20.374;2023-04-03T14:41:00;3.90;;;2.10;;
60076;SDS011;45950;45.208;20.374;2023-04-03T14:46:14;5.13;;;3.10;;
60076;SDS011;45950;45.208;20.374;2023-04-03T14:48:42;4.25;;;2.15;;
60076;SDS011;45950;45.208;20.374;2023-04-03T14:51:09;4.38;;;1.95;;
60076;SDS011;45950;45.208;20.374;2023-04-03T14:53:36;2.70;;;1.80;;
60076;SDS011;45950;45.208;20.374;2023-04-03T14:56:04;3.72;;;1.92;;
60076;SDS011;45950;45.208;20.374;2023-04-03T14:58:31;3.88;;;2.08;;
60076;SDS011;45950;45.208;20.374;2023-04-03T15:00:57;3.88;;;2.28;;
60076;SDS011;45950;45.208;20.374;2023-04-03T15:03:25;7.18;;;3.00;;
60076;SDS011;45950;45.208;20.374;2023-04-03T15:05:52;8.43;;;4.32;;
60076;SDS011;45950;45.208;20.374;2023-04-03T15:08:19;4.63;;;2.17;;
60076;SDS011;45950;45.208;20.374;2023-04-03T15:10:47;9.27;;;3.88;;
60076;SDS011;45950;45.208;20.374;2023-04-03T15:13:14;9.90;;;3.65;;
60076;SDS011;45950;45.208;20.374;2023-04-03T15:18:44;6.18;;;2.67;;